Neosho, Missouri
Current Conditions -  °F | °C
As of 6:35 AM on Friday 24 Oct 2014 (Local Time) from KHFJ Reporting Station
Clear Clear  
Wind Chill: 50°   Ceiling: Unl
Heat Index: 50°   Visibility: 10mi
Dew Point: 48°   Wind: 5mph
Humidity: 94%   Direction: 170°S
Pressure: 30.12"   Gusts: NA
Location:  36.87°N, 94.36°W
Report Text: KHFJ 241135Z AUTO 17004KT 10SM CLR 10/09 A3012 RMK AO2
Loading
Personal Weather Stations






























Interactive Weather Map
Tropical Storm Tracking
New forecast layout! Learn more

10-Day Weather Forecast

Advertisements
Track Severe Weather on mobile